createdAt,value
2022-08-29T00:00:18.910Z,21.47
2022-08-29T00:01:25.106Z,21.49
2022-08-29T00:02:30.585Z,21.48
2022-08-29T00:03:38.549Z,21.40
2022-08-29T00:04:46.201Z,21.30
2022-08-29T00:05:51.660Z,21.26
2022-08-29T00:06:55.957Z,21.32
2022-08-29T00:08:02.012Z,21.27
2022-08-29T00:09:05.465Z,21.48
2022-08-29T00:10:10.697Z,21.43
2022-08-29T00:11:14.846Z,21.39
2022-08-29T00:12:20.216Z,21.19
2022-08-29T00:13:25.852Z,21.14
2022-08-29T00:14:32.590Z,21.17
2022-08-29T00:15:44.350Z,21.16
2022-08-29T00:16:43.650Z,21.10
2022-08-29T00:17:47.684Z,21.26
2022-08-29T00:18:51.404Z,21.44
2022-08-29T00:19:55.089Z,21.39
2022-08-29T00:21:00.263Z,21.48
2022-08-29T00:22:07.016Z,21.57
2022-08-29T00:23:10.261Z,21.50
2022-08-29T00:24:15.107Z,21.56
2022-08-29T00:25:18.768Z,21.51
2022-08-29T00:26:26.661Z,21.54
2022-08-29T00:27:38.168Z,21.62
2022-08-29T00:28:42.138Z,21.54
2022-08-29T00:29:47.951Z,21.34
2022-08-29T00:30:52.386Z,21.31
2022-08-29T00:31:55.832Z,21.40
2022-08-29T00:32:59.619Z,21.34
2022-08-29T00:34:04.359Z,21.36
2022-08-29T00:36:26.343Z,21.44
2022-08-29T00:37:32.041Z,21.35
2022-08-29T00:38:35.777Z,21.41
2022-08-29T00:39:46.394Z,21.34
2022-08-29T00:40:52.457Z,21.26
2022-08-29T00:41:55.281Z,21.24
2022-08-29T00:43:02.589Z,21.20
2022-08-29T00:44:07.142Z,21.20
2022-08-29T00:45:13.206Z,21.10
2022-08-29T00:46:20.183Z,21.15
2022-08-29T00:47:27.826Z,21.18
2022-08-29T00:48:32.332Z,21.34
2022-08-29T00:49:39.948Z,21.25
2022-08-29T00:50:55.844Z,21.32
2022-08-29T00:52:04.295Z,21.41
2022-08-29T00:54:27.637Z,21.67
2022-08-29T00:55:34.662Z,21.59
2022-08-29T00:56:40.416Z,21.51
2022-08-29T00:57:50.677Z,21.57
2022-08-29T00:59:10.571Z,21.65
2022-08-29T01:00:19.461Z,21.70
2022-08-29T01:01:25.828Z,21.56
2022-08-29T01:02:28.703Z,21.55
2022-08-29T01:03:35.929Z,21.67
2022-08-29T01:04:41.810Z,21.69
2022-08-29T01:05:47.790Z,21.70
2022-08-29T01:06:54.753Z,21.74
2022-08-29T01:08:01.852Z,21.73
2022-08-29T01:09:12.580Z,21.83
2022-08-29T01:10:20.263Z,21.87
2022-08-29T01:11:43.242Z,21.80
2022-08-29T01:12:48.347Z,21.82
2022-08-29T01:13:53.249Z,21.86
2022-08-29T01:15:02.462Z,21.87
2022-08-29T01:16:10.379Z,21.87
2022-08-29T01:17:20.584Z,21.85
2022-08-29T01:18:28.002Z,21.86
2022-08-29T01:21:02.218Z,21.97
2022-08-29T01:22:19.199Z,21.88
2022-08-29T01:23:28.545Z,21.88
2022-08-29T01:24:40.165Z,21.80
2022-08-29T01:25:49.461Z,21.82
2022-08-29T01:26:52.566Z,21.81
2022-08-29T01:27:59.973Z,21.87
2022-08-29T01:29:05.645Z,21.86
2022-08-29T01:30:11.193Z,21.80
2022-08-29T01:31:20.009Z,21.66
2022-08-29T01:32:26.248Z,21.57
2022-08-29T01:33:46.015Z,21.64
2022-08-29T01:34:53.232Z,21.69
2022-08-29T01:35:56.506Z,21.71
2022-08-29T01:37:04.528Z,21.64
2022-08-29T01:38:07.908Z,21.66
2022-08-29T01:39:11.825Z,21.64
2022-08-29T01:40:16.106Z,21.72
2022-08-29T01:41:22.136Z,21.76
2022-08-29T01:42:26.398Z,21.77
2022-08-29T01:43:32.329Z,21.82
2022-08-29T01:44:36.672Z,21.83
2022-08-29T01:45:41.645Z,21.86
2022-08-29T01:46:47.280Z,21.86
2022-08-29T01:47:51.034Z,21.83
2022-08-29T01:48:54.653Z,21.87
2022-08-29T01:49:59.098Z,21.86
2022-08-29T01:51:01.736Z,21.85
2022-08-29T01:52:09.911Z,21.86
2022-08-29T01:53:20.734Z,21.85
2022-08-29T01:54:25.872Z,21.87
2022-08-29T01:55:29.643Z,21.83
2022-08-29T01:56:37.065Z,21.78
2022-08-29T01:57:42.156Z,21.78
2022-08-29T01:58:48.036Z,21.78
2022-08-29T01:59:52.498Z,21.71
2022-08-29T02:00:57.438Z,21.72
2022-08-29T02:02:11.227Z,21.81
2022-08-29T02:03:27.532Z,21.82
2022-08-29T02:04:32.112Z,21.86
2022-08-29T02:05:37.226Z,21.86
2022-08-29T02:06:44.753Z,21.82
2022-08-29T02:07:50.566Z,21.87
2022-08-29T02:08:57.431Z,21.86
2022-08-29T02:10:01.996Z,21.89
2022-08-29T02:11:09.244Z,21.86
2022-08-29T02:12:14.332Z,21.88
2022-08-29T02:13:19.722Z,21.82
2022-08-29T02:14:24.877Z,21.78
2022-08-29T02:15:27.879Z,21.84
2022-08-29T02:16:34.547Z,21.82
2022-08-29T02:17:39.491Z,21.86
2022-08-29T02:18:44.063Z,21.85
2022-08-29T02:19:46.906Z,21.78
2022-08-29T02:20:50.993Z,21.84
2022-08-29T02:21:54.689Z,21.78
2022-08-29T02:23:00.063Z,21.83
2022-08-29T02:24:24.028Z,21.87
2022-08-29T02:25:29.657Z,21.81
2022-08-29T02:26:33.741Z,21.82
2022-08-29T02:27:37.661Z,21.79
2022-08-29T02:28:42.352Z,21.72
2022-08-29T02:29:47.758Z,21.63
2022-08-29T02:30:56.622Z,21.56
2022-08-29T02:32:00.333Z,21.57
2022-08-29T02:33:06.212Z,21.59
2022-08-29T02:34:11.889Z,21.63
2022-08-29T02:35:16.187Z,21.58
2022-08-29T02:36:25.584Z,21.56
2022-08-29T02:37:35.062Z,21.55
2022-08-29T02:38:41.993Z,21.68
2022-08-29T02:39:46.719Z,21.63
2022-08-29T02:40:51.421Z,21.66
2022-08-29T02:41:54.510Z,21.67
2022-08-29T02:42:58.380Z,21.70
2022-08-29T02:44:03.452Z,21.79
2022-08-29T02:45:08.765Z,21.77
2022-08-29T02:46:18.950Z,21.76
2022-08-29T02:47:22.633Z,21.76
2022-08-29T02:49:41.447Z,21.71
2022-08-29T02:50:49.336Z,21.66
2022-08-29T02:51:56.496Z,21.76
2022-08-29T02:53:00.318Z,21.59
2022-08-29T02:54:03.516Z,21.43
2022-08-29T02:55:10.460Z,21.53
2022-08-29T02:56:15.113Z,21.57
2022-08-29T02:57:20.086Z,21.61
2022-08-29T02:58:25.569Z,21.62
2022-08-29T02:59:29.598Z,21.55
2022-08-29T03:00:34.592Z,21.46
2022-08-29T03:01:38.925Z,21.48
2022-08-29T03:02:45.541Z,21.48
2022-08-29T03:03:55.801Z,21.50
2022-08-29T03:05:02.300Z,21.44
2022-08-29T03:06:07.906Z,21.30
2022-08-29T03:07:11.490Z,21.24
2022-08-29T03:08:16.490Z,21.31
2022-08-29T03:09:23.759Z,21.33
2022-08-29T03:10:27.244Z,21.44
2022-08-29T03:11:34.509Z,21.44
2022-08-29T03:12:38.635Z,21.47
2022-08-29T03:13:42.249Z,21.44
2022-08-29T03:14:48.888Z,21.49
2022-08-29T03:15:52.600Z,21.51
2022-08-29T03:16:56.543Z,21.38
2022-08-29T03:18:05.062Z,21.37
2022-08-29T03:19:08.610Z,21.28
2022-08-29T03:20:17.260Z,21.34
2022-08-29T03:21:24.192Z,21.20
2022-08-29T03:22:32.025Z,21.30
2022-08-29T03:23:35.903Z,21.28
2022-08-29T03:24:38.878Z,21.26
2022-08-29T03:25:45.211Z,21.33
2022-08-29T03:26:56.640Z,21.38
2022-08-29T03:28:00.631Z,21.28
2022-08-29T03:29:03.804Z,21.33
2022-08-29T03:30:11.611Z,21.32
2022-08-29T03:31:17.682Z,21.38
2022-08-29T03:32:22.217Z,21.42
2022-08-29T03:33:25.257Z,21.36
2022-08-29T03:34:31.499Z,21.37
2022-08-29T03:35:35.177Z,21.43
2022-08-29T03:36:39.740Z,21.46
2022-08-29T03:37:43.123Z,21.47
2022-08-29T03:38:47.673Z,21.48
2022-08-29T03:39:55.189Z,21.50
2022-08-29T03:41:02.328Z,21.54
2022-08-29T03:42:09.157Z,21.50
2022-08-29T03:43:12.934Z,21.52
2022-08-29T03:44:16.965Z,21.54
2022-08-29T03:45:21.096Z,21.46
2022-08-29T03:46:30.435Z,21.50
2022-08-29T03:47:36.775Z,21.40
2022-08-29T03:48:40.554Z,21.46
2022-08-29T03:49:44.037Z,21.31
2022-08-29T03:50:47.917Z,21.34
2022-08-29T03:51:51.941Z,21.47
2022-08-29T03:52:57.639Z,21.54
2022-08-29T03:54:01.675Z,21.60
2022-08-29T03:55:07.127Z,21.64
2022-08-29T03:56:18.837Z,21.66
2022-08-29T03:57:18.742Z,21.57
2022-08-29T03:58:22.791Z,21.56
2022-08-29T03:59:27.863Z,21.49
2022-08-29T04:00:33.614Z,21.58
2022-08-29T04:01:37.642Z,21.60
2022-08-29T04:02:41.268Z,21.65
2022-08-29T04:03:44.771Z,21.58
2022-08-29T04:05:08.202Z,21.58
2022-08-29T04:06:12.450Z,21.59
2022-08-29T04:07:18.197Z,21.48
2022-08-29T04:08:23.635Z,21.56
2022-08-29T04:09:27.919Z,21.61
2022-08-29T04:10:35.662Z,21.66
2022-08-29T04:11:39.937Z,21.67
2022-08-29T04:12:43.728Z,21.79
2022-08-29T04:13:48.309Z,21.87
2022-08-29T04:14:51.924Z,21.65
2022-08-29T04:15:56.708Z,21.57
2022-08-29T04:17:00.420Z,21.76
2022-08-29T04:18:15.630Z,21.81
2022-08-29T04:19:22.565Z,21.83
2022-08-29T04:20:30.511Z,21.96
2022-08-29T04:21:35.935Z,22.00
2022-08-29T04:22:49.182Z,21.92
2022-08-29T04:23:53.173Z,21.93
2022-08-29T04:24:56.990Z,21.83
2022-08-29T04:26:19.148Z,22.00
2022-08-29T04:27:06.194Z,22.08
2022-08-29T04:28:14.804Z,22.15
2022-08-29T04:29:18.349Z,21.94
2022-08-29T04:30:28.652Z,21.87
2022-08-29T04:31:32.294Z,21.95
2022-08-29T04:32:36.221Z,21.87
2022-08-29T04:33:41.172Z,21.74
2022-08-29T04:34:47.124Z,21.70
2022-08-29T04:35:51.775Z,21.66
2022-08-29T04:36:56.678Z,21.65
2022-08-29T04:38:00.374Z,21.79
2022-08-29T04:39:04.328Z,21.94
2022-08-29T04:40:11.075Z,22.01
2022-08-29T04:41:15.004Z,22.01
2022-08-29T04:42:22.808Z,21.99
2022-08-29T04:43:26.482Z,21.97
2022-08-29T04:44:29.952Z,22.11
2022-08-29T04:45:37.274Z,22.08
2022-08-29T04:46:41.311Z,21.92
2022-08-29T04:47:46.346Z,22.16
2022-08-29T04:48:51.906Z,22.04
2022-08-29T04:49:58.775Z,21.98
2022-08-29T04:51:04.177Z,22.06
2022-08-29T04:52:11.045Z,22.35
2022-08-29T04:53:23.181Z,22.41
2022-08-29T04:54:26.632Z,22.54
2022-08-29T04:55:32.318Z,22.58
2022-08-29T04:56:44.315Z,22.50
2022-08-29T04:57:45.356Z,22.55
2022-08-29T04:58:51.472Z,22.47
2022-08-29T05:00:00.615Z,22.66
2022-08-29T05:01:04.716Z,22.76
2022-08-29T05:02:08.751Z,22.84
2022-08-29T05:03:16.452Z,23.20
2022-08-29T05:04:19.519Z,23.23
2022-08-29T05:05:22.747Z,23.41
2022-08-29T05:06:26.673Z,23.48
2022-08-29T05:07:29.468Z,24.33
2022-08-29T05:08:35.722Z,25.13
2022-08-29T05:09:41.051Z,25.31
2022-08-29T05:10:57.281Z,25.24
2022-08-29T05:12:00.927Z,25.01
2022-08-29T05:13:08.583Z,24.45
2022-08-29T05:14:14.885Z,23.99
2022-08-29T05:15:19.743Z,23.92
2022-08-29T05:16:25.477Z,24.12
2022-08-29T05:17:28.597Z,23.98
2022-08-29T05:18:31.962Z,24.08
2022-08-29T05:19:36.308Z,24.30
2022-08-29T05:20:41.896Z,24.19
2022-08-29T05:21:46.492Z,24.19
2022-08-29T05:22:51.898Z,24.04
2022-08-29T05:23:56.593Z,23.97
2022-08-29T05:24:59.640Z,23.94
2022-08-29T05:26:06.907Z,24.00
2022-08-29T05:27:15.111Z,24.01
2022-08-29T05:28:18.440Z,24.11
2022-08-29T05:29:21.596Z,24.11
2022-08-29T05:30:34.407Z,24.31
2022-08-29T05:31:32.935Z,24.45
2022-08-29T05:32:36.955Z,24.53
2022-08-29T05:33:41.213Z,24.56
2022-08-29T05:34:45.848Z,24.49
2022-08-29T05:35:50.949Z,24.41
2022-08-29T05:36:55.620Z,25.22
2022-08-29T05:38:00.502Z,25.43
2022-08-29T05:39:04.423Z,25.36
2022-08-29T05:40:12.147Z,25.28
2022-08-29T05:41:16.572Z,25.19
2022-08-29T05:42:25.758Z,25.26
2022-08-29T05:43:29.721Z,25.26
2022-08-29T05:44:35.664Z,25.48
2022-08-29T05:45:40.445Z,25.50
2022-08-29T05:46:47.104Z,25.48
2022-08-29T05:47:50.766Z,25.64
2022-08-29T05:48:55.558Z,25.79
2022-08-29T05:49:58.636Z,25.69
2022-08-29T05:51:02.648Z,25.61
2022-08-29T05:52:07.430Z,25.49
2022-08-29T05:53:16.668Z,25.70
2022-08-29T05:54:20.646Z,25.54
2022-08-29T05:55:26.189Z,25.63
2022-08-29T05:56:31.920Z,25.40
2022-08-29T05:57:38.950Z,25.82
2022-08-29T05:58:42.034Z,25.95
2022-08-29T05:59:46.091Z,25.97
2022-08-29T06:00:51.345Z,25.93
2022-08-29T06:01:55.209Z,25.96
2022-08-29T06:02:59.129Z,26.22
2022-08-29T06:04:05.476Z,26.86
2022-08-29T06:05:13.500Z,26.83
2022-08-29T06:06:21.448Z,26.45
2022-08-29T06:07:32.227Z,26.12
2022-08-29T06:08:38.466Z,26.04
2022-08-29T06:09:44.041Z,26.07
2022-08-29T06:10:48.105Z,26.57
2022-08-29T06:11:52.756Z,26.11
2022-08-29T06:12:56.366Z,25.97
2022-08-29T06:14:01.229Z,26.12
2022-08-29T06:15:07.443Z,25.80
2022-08-29T06:17:27.262Z,26.72
2022-08-29T06:18:35.538Z,26.82
2022-08-29T06:19:41.226Z,26.69
2022-08-29T06:20:45.796Z,26.77
2022-08-29T06:21:53.190Z,26.80
2022-08-29T06:22:56.648Z,26.79
2022-08-29T06:24:01.553Z,26.85
2022-08-29T06:25:35.173Z,27.04
2022-08-29T06:26:14.884Z,26.90
2022-08-29T06:27:18.593Z,26.83
2022-08-29T06:28:23.978Z,26.84
2022-08-29T06:29:28.424Z,26.68
2022-08-29T06:30:34.223Z,26.76
2022-08-29T06:31:39.253Z,26.81
2022-08-29T06:32:46.789Z,27.44
2022-08-29T06:33:55.428Z,27.30
2022-08-29T06:35:01.405Z,27.29
2022-08-29T06:36:09.134Z,27.74
2022-08-29T06:37:14.902Z,28.09
2022-08-29T06:38:18.991Z,27.68
2022-08-29T06:39:23.368Z,27.57
2022-08-29T06:40:30.114Z,27.89
2022-08-29T06:41:35.631Z,28.29
2022-08-29T06:42:40.311Z,28.65
2022-08-29T06:43:47.992Z,29.63
2022-08-29T06:44:55.239Z,31.10
2022-08-29T06:45:59.167Z,32.58
2022-08-29T06:47:03.711Z,34.26
2022-08-29T06:48:07.231Z,35.14
2022-08-29T06:49:14.042Z,35.37
2022-08-29T06:50:20.247Z,36.04
2022-08-29T06:51:25.224Z,36.64
2022-08-29T06:52:30.197Z,37.17
2022-08-29T06:53:37.449Z,37.10
2022-08-29T06:54:41.676Z,37.94
2022-08-29T06:55:45.285Z,37.67
2022-08-29T06:56:52.444Z,38.04
2022-08-29T06:57:56.476Z,38.43
2022-08-29T06:59:01.709Z,38.55
2022-08-29T07:00:16.883Z,38.70
2022-08-29T07:01:19.242Z,39.07
2022-08-29T07:02:23.267Z,38.31
2022-08-29T07:03:33.981Z,38.94
2022-08-29T07:04:38.155Z,39.50
2022-08-29T07:05:43.140Z,39.75
2022-08-29T07:06:49.865Z,39.64
2022-08-29T07:07:55.556Z,39.72
2022-08-29T07:09:01.607Z,39.20
2022-08-29T07:10:06.309Z,39.67
2022-08-29T07:11:11.284Z,40.20
2022-08-29T07:12:16.566Z,40.17
2022-08-29T07:13:20.747Z,40.80
2022-08-29T07:14:25.436Z,41.30
2022-08-29T07:15:28.058Z,41.62
2022-08-29T07:16:36.308Z,42.05
2022-08-29T07:17:40.786Z,42.20
2022-08-29T07:18:46.949Z,41.74
2022-08-29T07:19:50.233Z,42.03
2022-08-29T07:20:58.644Z,41.79
2022-08-29T07:47:08.134Z,41.76
2022-08-29T07:48:12.861Z,41.61
2022-08-29T07:49:16.498Z,42.31
2022-08-29T07:50:22.061Z,41.85
2022-08-29T07:51:27.441Z,41.43
2022-08-29T07:52:37.979Z,41.22
2022-08-29T07:53:43.536Z,41.85
2022-08-29T07:54:47.310Z,42.09
2022-08-29T07:55:52.291Z,41.43
2022-08-29T07:57:01.378Z,41.63
2022-08-29T07:58:06.576Z,41.57
2022-08-29T07:59:10.779Z,40.87
2022-08-29T08:00:15.535Z,40.71
2022-08-29T08:01:21.538Z,40.29
2022-08-29T08:02:25.308Z,40.71
2022-08-29T08:03:29.561Z,40.50
2022-08-29T08:04:32.660Z,40.88
2022-08-29T08:05:38.698Z,40.54
2022-08-29T08:06:42.727Z,40.81
2022-08-29T08:07:48.753Z,40.19
2022-08-29T08:08:56.873Z,39.33
2022-08-29T08:10:00.970Z,38.58
2022-08-29T08:11:15.708Z,38.59
2022-08-29T08:12:19.436Z,38.39
2022-08-29T08:13:23.981Z,37.54
2022-08-29T08:14:35.082Z,36.94
2022-08-29T08:15:34.341Z,37.51
2022-08-29T08:16:38.231Z,38.20
2022-08-29T08:17:48.534Z,38.69
2022-08-29T08:18:53.274Z,38.22
2022-08-29T08:19:57.228Z,37.65
2022-08-29T08:21:01.779Z,37.85
2022-08-29T08:22:05.460Z,37.47
2022-08-29T08:23:14.864Z,37.04
2022-08-29T08:24:22.526Z,37.47
2022-08-29T08:25:26.177Z,37.30
2022-08-29T08:26:32.985Z,37.64
2022-08-29T08:27:41.065Z,37.71
2022-08-29T08:28:42.540Z,37.24
2022-08-29T08:29:45.369Z,37.50
2022-08-29T08:30:49.065Z,37.56
2022-08-29T08:31:52.856Z,37.60
2022-08-29T08:32:56.513Z,37.11
2022-08-29T08:34:01.475Z,36.86
2022-08-29T08:35:06.935Z,36.70
2022-08-29T08:36:20.757Z,37.06
2022-08-29T08:37:27.796Z,37.23
2022-08-29T08:38:29.540Z,37.41
2022-08-29T08:39:32.183Z,37.43
2022-08-29T08:40:39.844Z,37.15
2022-08-29T08:41:56.559Z,36.97
2022-08-29T08:43:03.564Z,37.21
2022-08-29T08:44:28.171Z,36.39
2022-08-29T08:45:40.788Z,36.44
2022-08-29T08:46:51.207Z,36.58
2022-08-29T08:48:08.127Z,36.70
2022-08-29T08:49:16.399Z,36.63
2022-08-29T08:50:42.983Z,36.57
2022-08-29T08:51:52.763Z,36.55
2022-08-29T08:53:09.127Z,36.78
2022-08-29T08:54:16.068Z,36.74
2022-08-29T08:55:32.369Z,36.79
2022-08-29T08:56:48.070Z,36.75
2022-08-29T08:57:55.615Z,36.71
2022-08-29T08:59:17.762Z,37.17
2022-08-29T09:00:24.699Z,36.75
2022-08-29T09:01:35.990Z,36.66
2022-08-29T09:03:07.453Z,36.89
2022-08-29T09:04:21.665Z,37.12
2022-08-29T09:05:39.502Z,36.99
2022-08-29T09:07:18.213Z,36.70
2022-08-29T09:08:44.103Z,36.19
2022-08-29T09:10:05.540Z,36.70
2022-08-29T09:11:29.133Z,37.06
2022-08-29T09:12:51.354Z,37.21
2022-08-29T09:14:14.643Z,36.90
2022-08-29T09:15:24.798Z,37.23
2022-08-29T09:16:41.809Z,37.19
2022-08-29T09:17:54.514Z,37.04
2022-08-29T09:19:03.760Z,36.82
2022-08-29T09:20:11.167Z,37.17
2022-08-29T09:21:39.986Z,37.04
2022-08-29T09:22:33.140Z,36.75
2022-08-29T09:24:01.224Z,36.20
2022-08-29T09:25:08.705Z,36.17
2022-08-29T09:26:15.603Z,35.85
2022-08-29T09:27:23.713Z,36.04
2022-08-29T09:28:30.486Z,36.26
2022-08-29T09:29:36.684Z,36.59
2022-08-29T09:30:48.057Z,36.85
2022-08-29T09:33:30.188Z,36.17
2022-08-29T09:35:04.395Z,36.26
2022-08-29T09:35:49.215Z,35.90
2022-08-29T09:36:57.492Z,35.87
2022-08-29T09:39:25.389Z,36.26
2022-08-29T09:40:51.153Z,36.09
2022-08-29T09:42:14.249Z,36.10
2022-08-29T09:43:21.473Z,35.76
2022-08-29T09:44:31.137Z,36.11
2022-08-29T09:45:34.336Z,36.21
2022-08-29T09:46:38.712Z,36.66
2022-08-29T09:47:41.376Z,36.79
2022-08-29T09:48:57.658Z,37.08
2022-08-29T09:50:24.710Z,37.21
2022-08-29T09:51:36.874Z,37.03
2022-08-29T09:53:01.681Z,37.09
2022-08-29T09:54:19.685Z,36.74
2022-08-29T09:55:45.301Z,36.54
2022-08-29T09:57:06.935Z,36.79
2022-08-29T09:58:20.442Z,37.02
2022-08-29T09:59:31.148Z,36.04
2022-08-29T10:00:45.280Z,36.10
2022-08-29T10:01:53.263Z,36.20
2022-08-29T10:03:03.908Z,36.40
2022-08-29T10:04:08.664Z,36.24
2022-08-29T10:05:44.053Z,36.32
2022-08-29T10:06:54.151Z,36.32
2022-08-29T10:08:07.750Z,36.06
2022-08-29T10:09:16.696Z,36.15
2022-08-29T10:10:23.980Z,36.08
2022-08-29T10:11:55.739Z,35.97
2022-08-29T10:13:07.540Z,35.72
2022-08-29T10:14:23.915Z,36.09
2022-08-29T10:15:51.694Z,36.28
2022-08-29T10:16:56.996Z,36.58
2022-08-29T10:18:29.347Z,36.31
2022-08-29T10:19:34.549Z,36.08
2022-08-29T10:21:11.326Z,35.47
2022-08-29T10:22:33.913Z,35.69
2022-08-29T10:23:53.705Z,35.92
2022-08-29T10:25:03.728Z,35.55
2022-08-29T10:26:14.622Z,35.64
2022-08-29T10:27:22.327Z,35.81
2022-08-29T10:28:42.972Z,36.01
2022-08-29T10:29:55.690Z,36.28
2022-08-29T10:31:10.496Z,36.29
2022-08-29T10:32:43.055Z,35.68
2022-08-29T10:33:54.704Z,35.19
2022-08-29T10:35:17.230Z,35.00
2022-08-29T10:36:35.302Z,35.07
2022-08-29T10:37:44.693Z,34.88
2022-08-29T10:39:10.052Z,35.05
2022-08-29T10:41:50.590Z,35.60
2022-08-29T10:43:00.905Z,35.63
2022-08-29T10:44:26.678Z,35.58
2022-08-29T10:45:37.640Z,35.47
2022-08-29T10:46:51.557Z,35.53
2022-08-29T10:48:00.944Z,35.20
2022-08-29T10:49:26.521Z,35.41
2022-08-29T10:50:44.981Z,35.37
2022-08-29T10:52:04.839Z,35.58
2022-08-29T10:53:17.158Z,35.52
2022-08-29T10:54:40.645Z,35.72
2022-08-29T10:55:51.475Z,35.87
2022-08-29T10:56:58.030Z,35.79
2022-08-29T10:58:12.586Z,35.85
2022-08-29T10:59:30.394Z,35.92
2022-08-29T11:00:47.070Z,35.72
2022-08-29T11:01:54.766Z,36.06
2022-08-29T11:03:11.743Z,35.83
2022-08-29T11:04:40.391Z,35.41
2022-08-29T11:05:47.613Z,35.59
2022-08-29T11:07:05.807Z,35.43
2022-08-29T11:08:18.185Z,35.83
2022-08-29T11:09:51.530Z,35.65
2022-08-29T11:10:55.726Z,35.76
2022-08-29T11:12:19.093Z,36.00
2022-08-29T11:13:29.332Z,35.95
2022-08-29T11:14:37.714Z,35.33
2022-08-29T11:15:45.718Z,35.13
2022-08-29T11:16:55.399Z,34.91
2022-08-29T11:18:11.961Z,34.81
2022-08-29T11:19:37.380Z,34.93
2022-08-29T11:20:45.425Z,35.35
2022-08-29T11:22:11.213Z,35.49
2022-08-29T11:23:21.338Z,35.52
2022-08-29T11:24:32.922Z,35.49
2022-08-29T11:25:37.152Z,35.24
2022-08-29T11:26:47.545Z,35.29
2022-08-29T11:28:08.642Z,35.44
2022-08-29T11:29:25.201Z,35.27
2022-08-29T11:30:36.333Z,35.28
2022-08-29T11:31:59.873Z,35.53
2022-08-29T11:33:16.023Z,35.46
2022-08-29T11:34:50.159Z,35.02
2022-08-29T11:36:14.503Z,34.79
2022-08-29T11:37:45.642Z,35.18
2022-08-29T11:39:20.367Z,35.40
2022-08-29T11:42:15.266Z,35.71
2022-08-29T11:43:26.804Z,35.24
2022-08-29T11:44:34.109Z,35.11
2022-08-29T11:45:40.817Z,35.47
2022-08-29T11:46:53.605Z,35.44
2022-08-29T11:48:01.194Z,35.41
2022-08-29T11:49:31.127Z,35.41
2022-08-29T11:50:39.814Z,35.20
2022-08-29T11:51:43.847Z,35.29
2022-08-29T11:53:09.319Z,35.51
2022-08-29T11:54:29.057Z,35.37
2022-08-29T11:55:42.376Z,35.36
2022-08-29T11:56:46.889Z,35.16
2022-08-29T11:59:04.369Z,35.20
2022-08-29T12:00:11.898Z,35.32
2022-08-29T12:01:42.996Z,35.40
2022-08-29T12:02:49.058Z,35.24
2022-08-29T12:03:56.930Z,35.21
2022-08-29T12:05:06.741Z,35.31
2022-08-29T12:06:37.094Z,35.34
2022-08-29T12:07:58.512Z,34.91
2022-08-29T12:09:17.381Z,35.11
2022-08-29T12:10:24.927Z,35.16
2022-08-29T12:11:58.210Z,35.15
2022-08-29T12:13:06.364Z,35.26
2022-08-29T12:14:09.109Z,35.32
2022-08-29T12:15:34.029Z,35.24
2022-08-29T12:16:51.448Z,35.24
2022-08-29T12:18:02.857Z,35.36
2022-08-29T12:19:04.962Z,35.65
2022-08-29T12:20:30.920Z,35.86
2022-08-29T12:21:41.502Z,35.66
2022-08-29T12:24:35.180Z,35.57
2022-08-29T12:25:55.262Z,35.51
2022-08-29T12:26:54.684Z,35.41
2022-08-29T12:28:02.892Z,35.19
2022-08-29T12:29:10.582Z,35.11
2022-08-29T12:30:13.968Z,35.05
2022-08-29T12:31:21.591Z,35.04
2022-08-29T12:32:32.151Z,35.20
2022-08-29T12:33:59.084Z,35.01
2022-08-29T12:35:34.489Z,34.81
2022-08-29T12:36:52.577Z,35.29
2022-08-29T12:38:03.284Z,35.36
2022-08-29T12:39:19.737Z,35.33
2022-08-29T12:42:10.830Z,35.31
2022-08-29T12:43:32.764Z,35.31
2022-08-29T12:44:42.928Z,35.13
2022-08-29T12:45:49.724Z,35.13
2022-08-29T12:47:03.191Z,35.12
2022-08-29T12:48:10.459Z,35.14
2022-08-29T12:49:27.880Z,34.66
2022-08-29T12:50:37.230Z,34.63
2022-08-29T12:51:43.324Z,34.36
2022-08-29T12:53:05.574Z,34.54
2022-08-29T12:54:12.624Z,34.46
2022-08-29T12:55:29.098Z,34.44
2022-08-29T12:56:35.586Z,34.44
2022-08-29T12:57:41.594Z,34.84
2022-08-29T12:58:54.874Z,34.91
2022-08-29T13:00:08.814Z,34.86
2022-08-29T13:01:31.696Z,34.89
2022-08-29T13:04:04.148Z,35.16
2022-08-29T13:05:28.416Z,34.97
2022-08-29T13:06:31.408Z,35.20
2022-08-29T13:07:36.091Z,34.91
2022-08-29T13:08:40.617Z,34.53
2022-08-29T13:09:56.785Z,34.38
2022-08-29T13:12:38.560Z,34.89
2022-08-29T13:13:44.252Z,34.88
2022-08-29T13:14:50.513Z,34.88
2022-08-29T13:15:55.603Z,34.99
2022-08-29T13:16:59.858Z,34.83
2022-08-29T13:18:03.914Z,34.83
2022-08-29T13:19:22.247Z,34.90
2022-08-29T13:20:43.522Z,35.10
2022-08-29T13:21:47.264Z,35.19
2022-08-29T13:22:50.941Z,34.98
2022-08-29T13:25:17.809Z,35.02
2022-08-29T13:26:27.286Z,34.73
2022-08-29T13:27:34.207Z,34.65
2022-08-29T13:30:24.593Z,34.81
2022-08-29T13:31:30.721Z,34.67
2022-08-29T13:32:34.972Z,35.01
2022-08-29T13:33:42.727Z,35.20
2022-08-29T13:36:51.046Z,35.41
2022-08-29T13:39:48.893Z,35.20
2022-08-29T13:40:57.505Z,35.23
2022-08-29T13:42:06.306Z,35.54
2022-08-29T13:43:33.920Z,35.70
2022-08-29T13:44:41.203Z,35.68
2022-08-29T13:45:47.819Z,35.14
2022-08-29T13:46:53.985Z,34.83
2022-08-29T13:48:01.253Z,35.00
2022-08-29T13:49:04.707Z,35.07
2022-08-29T13:50:12.663Z,35.13
2022-08-29T13:51:18.319Z,35.12
2022-08-29T13:52:23.227Z,34.96
2022-08-29T13:53:29.132Z,35.01
2022-08-29T13:54:34.551Z,34.82
2022-08-29T13:55:40.675Z,34.63
2022-08-29T13:56:59.688Z,34.60
2022-08-29T13:58:06.007Z,34.58
2022-08-29T13:59:12.440Z,34.31
2022-08-29T14:00:18.595Z,34.18
2022-08-29T14:02:08.573Z,34.13
2022-08-29T14:02:32.324Z,34.15
2022-08-29T14:03:37.520Z,34.08
2022-08-29T14:04:50.199Z,33.81
2022-08-29T14:05:57.753Z,33.81
2022-08-29T14:07:03.211Z,33.64
2022-08-29T14:08:08.911Z,33.64
2022-08-29T14:09:19.612Z,33.66
2022-08-29T14:10:24.502Z,33.76
2022-08-29T14:11:31.991Z,33.79
2022-08-29T14:12:37.547Z,33.76
2022-08-29T14:13:42.559Z,33.83
2022-08-29T14:14:48.111Z,33.81
2022-08-29T14:15:52.079Z,33.90
2022-08-29T14:16:57.512Z,34.03
2022-08-29T14:18:05.526Z,33.97
2022-08-29T14:19:10.229Z,33.97
2022-08-29T14:20:14.976Z,34.00
2022-08-29T14:21:22.093Z,33.92
2022-08-29T14:22:25.946Z,33.91
2022-08-29T14:23:29.932Z,34.03
2022-08-29T14:24:35.737Z,34.05
2022-08-29T14:25:38.407Z,33.97
2022-08-29T14:26:46.443Z,33.91
2022-08-29T14:27:55.147Z,33.78
2022-08-29T14:29:03.517Z,33.93
2022-08-29T14:30:10.735Z,34.00
2022-08-29T14:31:13.370Z,34.08
2022-08-29T14:32:16.987Z,34.10
2022-08-29T14:33:21.041Z,34.10
2022-08-29T14:34:25.390Z,33.84
2022-08-29T14:35:33.038Z,33.86
2022-08-29T14:36:47.495Z,33.92
2022-08-29T14:37:45.168Z,33.95
2022-08-29T14:38:48.567Z,34.00
2022-08-29T14:39:51.585Z,34.02
2022-08-29T14:41:02.089Z,34.03
2022-08-29T14:42:06.476Z,33.93
2022-08-29T14:43:10.022Z,33.73
2022-08-29T14:44:20.237Z,33.83
2022-08-29T14:45:25.735Z,33.84
2022-08-29T14:46:30.528Z,33.92
2022-08-29T14:47:34.468Z,34.00
2022-08-29T14:48:39.154Z,34.06
2022-08-29T14:49:46.595Z,34.11
2022-08-29T14:50:50.833Z,34.11
2022-08-29T14:51:57.206Z,34.16
2022-08-29T14:53:02.247Z,34.14
2022-08-29T14:54:06.054Z,34.13
2022-08-29T14:55:13.962Z,34.21
2022-08-29T14:56:37.480Z,34.06
2022-08-29T14:57:24.422Z,34.21
2022-08-29T14:58:28.210Z,33.98
2022-08-29T14:59:38.034Z,34.08
2022-08-29T15:00:43.167Z,34.08
2022-08-29T15:01:52.947Z,33.90
2022-08-29T15:02:54.205Z,33.80
2022-08-29T15:03:59.014Z,33.64
2022-08-29T15:05:05.283Z,33.50
2022-08-29T15:06:08.450Z,33.63
2022-08-29T15:07:14.107Z,33.47
2022-08-29T15:08:19.004Z,33.47
2022-08-29T15:09:23.308Z,33.39
2022-08-29T15:10:28.215Z,33.34
2022-08-29T15:11:37.752Z,33.31
2022-08-29T15:12:41.803Z,33.21
2022-08-29T15:13:45.371Z,33.27
2022-08-29T15:14:52.118Z,33.11
2022-08-29T15:15:56.172Z,33.04
2022-08-29T15:17:01.582Z,33.01
2022-08-29T15:18:12.254Z,32.97
2022-08-29T15:19:45.114Z,32.87
2022-08-29T15:20:38.780Z,32.88
2022-08-29T15:21:27.179Z,33.00
2022-08-29T15:22:36.640Z,32.88
2022-08-29T15:23:43.077Z,32.87
2022-08-29T15:24:47.649Z,32.71
2022-08-29T15:25:52.358Z,32.71
2022-08-29T15:26:56.085Z,32.80
2022-08-29T15:27:59.557Z,32.82
2022-08-29T15:29:03.653Z,32.74
2022-08-29T15:30:09.662Z,32.70
2022-08-29T15:31:13.613Z,32.75
2022-08-29T15:32:20.111Z,32.79